sensor_id;sensor_type;location;lat;lon;timestamp;P1;durP1;ratioP1;P2;durP2;ratioP2
51852;SDS011;37894;53.172;6.598;2023-06-22T00:01:27;23.42;;;18.58;;
51852;SDS011;37894;53.172;6.598;2023-06-22T00:03:53;22.95;;;17.88;;
51852;SDS011;37894;53.172;6.598;2023-06-22T00:06:19;25.27;;;19.20;;
51852;SDS011;37894;53.172;6.598;2023-06-22T00:08:44;24.58;;;19.00;;
51852;SDS011;37894;53.172;6.598;2023-06-22T00:11:10;27.75;;;19.67;;
51852;SDS011;37894;53.172;6.598;2023-06-22T00:13:37;28.92;;;19.02;;
51852;SDS011;37894;53.172;6.598;2023-06-22T00:16:03;23.30;;;17.80;;
51852;SDS011;37894;53.172;6.598;2023-06-22T00:18:29;24.15;;;17.63;;
51852;SDS011;37894;53.172;6.598;2023-06-22T00:20:55;22.83;;;18.20;;
51852;SDS011;37894;53.172;6.598;2023-06-22T00:23:24;25.73;;;18.23;;
51852;SDS011;37894;53.172;6.598;2023-06-22T00:25:50;26.58;;;18.48;;
51852;SDS011;37894;53.172;6.598;2023-06-22T00:28:16;24.33;;;18.20;;
51852;SDS011;37894;53.172;6.598;2023-06-22T00:30:41;26.23;;;18.20;;
51852;SDS011;37894;53.172;6.598;2023-06-22T00:33:07;26.08;;;18.92;;
51852;SDS011;37894;53.172;6.598;2023-06-22T00:35:33;24.58;;;18.73;;
51852;SDS011;37894;53.172;6.598;2023-06-22T00:37:59;26.13;;;20.15;;
51852;SDS011;37894;53.172;6.598;2023-06-22T00:40:26;28.67;;;20.13;;
51852;SDS011;37894;53.172;6.598;2023-06-22T00:42:53;32.80;;;21.75;;
51852;SDS011;37894;53.172;6.598;2023-06-22T00:45:19;29.55;;;20.95;;
51852;SDS011;37894;53.172;6.598;2023-06-22T00:47:46;26.38;;;18.92;;
51852;SDS011;37894;53.172;6.598;2023-06-22T00:50:13;25.98;;;19.02;;
51852;SDS011;37894;53.172;6.598;2023-06-22T00:52:46;25.38;;;19.92;;
51852;SDS011;37894;53.172;6.598;2023-06-22T00:55:21;26.58;;;19.95;;
51852;SDS011;37894;53.172;6.598;2023-06-22T00:57:48;27.38;;;18.67;;
51852;SDS011;37894;53.172;6.598;2023-06-22T01:00:14;27.77;;;20.05;;
51852;SDS011;37894;53.172;6.598;2023-06-22T01:02:45;25.80;;;18.15;;
51852;SDS011;37894;53.172;6.598;2023-06-22T01:05:13;31.13;;;19.60;;
51852;SDS011;37894;53.172;6.598;2023-06-22T01:07:52;29.73;;;19.88;;
51852;SDS011;37894;53.172;6.598;2023-06-22T01:13:20;28.73;;;19.90;;
51852;SDS011;37894;53.172;6.598;2023-06-22T01:16:16;29.45;;;21.65;;
51852;SDS011;37894;53.172;6.598;2023-06-22T01:18:47;30.73;;;22.85;;
51852;SDS011;37894;53.172;6.598;2023-06-22T01:21:18;28.80;;;22.13;;
51852;SDS011;37894;53.172;6.598;2023-06-22T01:23:56;35.20;;;23.50;;
51852;SDS011;37894;53.172;6.598;2023-06-22T01:29:14;32.47;;;23.17;;
51852;SDS011;37894;53.172;6.598;2023-06-22T01:31:41;28.45;;;22.95;;
51852;SDS011;37894;53.172;6.598;2023-06-22T01:34:10;31.90;;;23.40;;
51852;SDS011;37894;53.172;6.598;2023-06-22T01:36:37;34.40;;;25.20;;
51852;SDS011;37894;53.172;6.598;2023-06-22T01:39:05;36.15;;;25.80;;
51852;SDS011;37894;53.172;6.598;2023-06-22T01:41:35;33.67;;;25.05;;
51852;SDS011;37894;53.172;6.598;2023-06-22T01:44:03;40.92;;;28.35;;
51852;SDS011;37894;53.172;6.598;2023-06-22T01:46:32;35.85;;;26.35;;
51852;SDS011;37894;53.172;6.598;2023-06-22T01:48:59;41.33;;;29.08;;
51852;SDS011;37894;53.172;6.598;2023-06-22T01:51:26;35.65;;;27.73;;
51852;SDS011;37894;53.172;6.598;2023-06-22T01:53:51;39.05;;;27.75;;
51852;SDS011;37894;53.172;6.598;2023-06-22T01:56:17;41.13;;;28.60;;
51852;SDS011;37894;53.172;6.598;2023-06-22T01:59:07;42.35;;;29.65;;
51852;SDS011;37894;53.172;6.598;2023-06-22T02:02:09;43.45;;;27.60;;
51852;SDS011;37894;53.172;6.598;2023-06-22T02:04:53;42.60;;;30.40;;
51852;SDS011;37894;53.172;6.598;2023-06-22T02:07:43;46.65;;;30.42;;
51852;SDS011;37894;53.172;6.598;2023-06-22T02:10:12;47.25;;;34.38;;
51852;SDS011;37894;53.172;6.598;2023-06-22T02:12:41;47.83;;;32.28;;
51852;SDS011;37894;53.172;6.598;2023-06-22T02:15:08;54.83;;;38.35;;
51852;SDS011;37894;53.172;6.598;2023-06-22T02:17:35;63.22;;;42.67;;
51852;SDS011;37894;53.172;6.598;2023-06-22T02:20:04;61.70;;;44.17;;
51852;SDS011;37894;53.172;6.598;2023-06-22T02:22:33;61.97;;;42.45;;
51852;SDS011;37894;53.172;6.598;2023-06-22T02:24:59;57.55;;;42.47;;
51852;SDS011;37894;53.172;6.598;2023-06-22T02:27:25;61.55;;;43.10;;
51852;SDS011;37894;53.172;6.598;2023-06-22T02:29:51;61.72;;;43.22;;
51852;SDS011;37894;53.172;6.598;2023-06-22T02:32:16;67.72;;;45.67;;
51852;SDS011;37894;53.172;6.598;2023-06-22T02:34:43;61.78;;;42.28;;
51852;SDS011;37894;53.172;6.598;2023-06-22T02:37:12;61.00;;;39.17;;
51852;SDS011;37894;53.172;6.598;2023-06-22T02:39:41;50.50;;;38.72;;
51852;SDS011;37894;53.172;6.598;2023-06-22T02:42:07;55.88;;;37.75;;
51852;SDS011;37894;53.172;6.598;2023-06-22T02:44:35;50.83;;;36.60;;
51852;SDS011;37894;53.172;6.598;2023-06-22T02:47:01;50.60;;;35.70;;
51852;SDS011;37894;53.172;6.598;2023-06-22T02:49:27;44.15;;;33.97;;
51852;SDS011;37894;53.172;6.598;2023-06-22T02:51:53;46.97;;;32.45;;
51852;SDS011;37894;53.172;6.598;2023-06-22T02:54:20;46.42;;;32.10;;
51852;SDS011;37894;53.172;6.598;2023-06-22T02:56:46;47.45;;;32.97;;
51852;SDS011;37894;53.172;6.598;2023-06-22T02:59:13;44.53;;;32.25;;
51852;SDS011;37894;53.172;6.598;2023-06-22T03:01:38;42.72;;;30.73;;
51852;SDS011;37894;53.172;6.598;2023-06-22T03:04:07;46.75;;;34.17;;
51852;SDS011;37894;53.172;6.598;2023-06-22T03:06:33;44.25;;;32.92;;
51852;SDS011;37894;53.172;6.598;2023-06-22T03:09:01;42.10;;;29.90;;
51852;SDS011;37894;53.172;6.598;2023-06-22T03:11:29;44.72;;;30.48;;
51852;SDS011;37894;53.172;6.598;2023-06-22T03:13:56;41.15;;;30.58;;
51852;SDS011;37894;53.172;6.598;2023-06-22T03:16:21;42.33;;;30.38;;
51852;SDS011;37894;53.172;6.598;2023-06-22T03:18:47;41.10;;;29.88;;
51852;SDS011;37894;53.172;6.598;2023-06-22T03:21:13;44.42;;;31.38;;
51852;SDS011;37894;53.172;6.598;2023-06-22T03:23:40;50.50;;;36.58;;
51852;SDS011;37894;53.172;6.598;2023-06-22T03:26:06;51.00;;;38.45;;
51852;SDS011;37894;53.172;6.598;2023-06-22T03:28:33;55.70;;;38.90;;
51852;SDS011;37894;53.172;6.598;2023-06-22T03:30:59;43.97;;;31.90;;
51852;SDS011;37894;53.172;6.598;2023-06-22T03:33:25;45.88;;;32.22;;
51852;SDS011;37894;53.172;6.598;2023-06-22T03:35:51;45.03;;;31.63;;
51852;SDS011;37894;53.172;6.598;2023-06-22T03:38:16;40.55;;;30.75;;
51852;SDS011;37894;53.172;6.598;2023-06-22T03:40:42;52.80;;;37.17;;
51852;SDS011;37894;53.172;6.598;2023-06-22T03:46:49;53.03;;;36.30;;
51852;SDS011;37894;53.172;6.598;2023-06-22T03:49:15;54.45;;;38.78;;
51852;SDS011;37894;53.172;6.598;2023-06-22T03:51:40;59.53;;;41.83;;
51852;SDS011;37894;53.172;6.598;2023-06-22T03:54:06;64.88;;;43.38;;
51852;SDS011;37894;53.172;6.598;2023-06-22T03:56:32;57.45;;;40.78;;
51852;SDS011;37894;53.172;6.598;2023-06-22T03:58:57;71.60;;;47.13;;
51852;SDS011;37894;53.172;6.598;2023-06-22T04:01:23;61.60;;;41.20;;
51852;SDS011;37894;53.172;6.598;2023-06-22T04:03:49;81.72;;;50.22;;
51852;SDS011;37894;53.172;6.598;2023-06-22T04:06:15;69.13;;;46.08;;
51852;SDS011;37894;53.172;6.598;2023-06-22T04:08:40;83.50;;;51.65;;
51852;SDS011;37894;53.172;6.598;2023-06-22T04:11:06;86.53;;;54.58;;
51852;SDS011;37894;53.172;6.598;2023-06-22T04:13:31;72.43;;;48.92;;
51852;SDS011;37894;53.172;6.598;2023-06-22T04:15:57;71.10;;;48.20;;
51852;SDS011;37894;53.172;6.598;2023-06-22T04:18:23;73.88;;;50.42;;
51852;SDS011;37894;53.172;6.598;2023-06-22T04:20:49;78.72;;;49.90;;
51852;SDS011;37894;53.172;6.598;2023-06-22T04:23:14;79.75;;;48.88;;
51852;SDS011;37894;53.172;6.598;2023-06-22T04:25:40;74.03;;;47.53;;
51852;SDS011;37894;53.172;6.598;2023-06-22T04:28:06;69.40;;;46.38;;
51852;SDS011;37894;53.172;6.598;2023-06-22T04:30:32;72.18;;;45.85;;
51852;SDS011;37894;53.172;6.598;2023-06-22T04:32:58;77.38;;;48.58;;
51852;SDS011;37894;53.172;6.598;2023-06-22T04:35:25;68.43;;;45.95;;
51852;SDS011;37894;53.172;6.598;2023-06-22T04:37:50;70.05;;;45.58;;
51852;SDS011;37894;53.172;6.598;2023-06-22T04:40:20;64.47;;;44.53;;
51852;SDS011;37894;53.172;6.598;2023-06-22T04:42:48;73.28;;;45.90;;
51852;SDS011;37894;53.172;6.598;2023-06-22T04:45:18;74.50;;;47.00;;
51852;SDS011;37894;53.172;6.598;2023-06-22T04:47:44;68.47;;;47.30;;
51852;SDS011;37894;53.172;6.598;2023-06-22T04:50:13;66.45;;;43.92;;
51852;SDS011;37894;53.172;6.598;2023-06-22T04:52:39;65.88;;;45.22;;
51852;SDS011;37894;53.172;6.598;2023-06-22T04:55:07;72.78;;;48.05;;
51852;SDS011;37894;53.172;6.598;2023-06-22T04:57:33;69.22;;;46.92;;
51852;SDS011;37894;53.172;6.598;2023-06-22T05:00:00;70.93;;;47.28;;
51852;SDS011;37894;53.172;6.598;2023-06-22T05:02:38;64.63;;;45.55;;
51852;SDS011;37894;53.172;6.598;2023-06-22T05:05:05;64.35;;;44.95;;
51852;SDS011;37894;53.172;6.598;2023-06-22T05:07:35;58.70;;;42.42;;
51852;SDS011;37894;53.172;6.598;2023-06-22T05:10:04;55.70;;;41.70;;
51852;SDS011;37894;53.172;6.598;2023-06-22T05:12:30;60.55;;;41.17;;
51852;SDS011;37894;53.172;6.598;2023-06-22T05:14:56;54.53;;;40.90;;
51852;SDS011;37894;53.172;6.598;2023-06-22T05:17:22;56.65;;;42.47;;
51852;SDS011;37894;53.172;6.598;2023-06-22T05:19:48;57.97;;;39.63;;
51852;SDS011;37894;53.172;6.598;2023-06-22T05:22:17;54.92;;;39.55;;
51852;SDS011;37894;53.172;6.598;2023-06-22T05:24:43;53.63;;;38.05;;
51852;SDS011;37894;53.172;6.598;2023-06-22T05:27:09;52.85;;;38.88;;
51852;SDS011;37894;53.172;6.598;2023-06-22T05:29:36;49.28;;;37.30;;
51852;SDS011;37894;53.172;6.598;2023-06-22T05:32:02;46.65;;;35.28;;
51852;SDS011;37894;53.172;6.598;2023-06-22T05:34:28;47.45;;;36.10;;
51852;SDS011;37894;53.172;6.598;2023-06-22T05:36:54;46.13;;;34.17;;
51852;SDS011;37894;53.172;6.598;2023-06-22T05:39:19;45.80;;;34.38;;
51852;SDS011;37894;53.172;6.598;2023-06-22T05:41:45;42.88;;;32.70;;
51852;SDS011;37894;53.172;6.598;2023-06-22T05:44:11;39.45;;;30.83;;
51852;SDS011;37894;53.172;6.598;2023-06-22T05:46:40;38.25;;;30.58;;
51852;SDS011;37894;53.172;6.598;2023-06-22T05:49:14;34.97;;;26.60;;
51852;SDS011;37894;53.172;6.598;2023-06-22T05:51:40;39.28;;;28.15;;
51852;SDS011;37894;53.172;6.598;2023-06-22T05:54:07;36.38;;;28.85;;
51852;SDS011;37894;53.172;6.598;2023-06-22T05:56:38;36.88;;;28.60;;
51852;SDS011;37894;53.172;6.598;2023-06-22T05:59:04;36.92;;;29.27;;
51852;SDS011;37894;53.172;6.598;2023-06-22T06:01:30;33.75;;;27.65;;
51852;SDS011;37894;53.172;6.598;2023-06-22T06:04:00;31.83;;;25.27;;
51852;SDS011;37894;53.172;6.598;2023-06-22T06:06:26;26.77;;;23.33;;
51852;SDS011;37894;53.172;6.598;2023-06-22T06:08:53;28.33;;;22.30;;
51852;SDS011;37894;53.172;6.598;2023-06-22T06:11:20;30.83;;;22.10;;
51852;SDS011;37894;53.172;6.598;2023-06-22T06:13:46;23.05;;;18.85;;
51852;SDS011;37894;53.172;6.598;2023-06-22T06:16:12;23.95;;;18.00;;
51852;SDS011;37894;53.172;6.598;2023-06-22T06:18:38;22.23;;;17.60;;
51852;SDS011;37894;53.172;6.598;2023-06-22T06:21:03;21.25;;;15.20;;
51852;SDS011;37894;53.172;6.598;2023-06-22T06:23:29;18.63;;;14.32;;
51852;SDS011;37894;53.172;6.598;2023-06-22T06:25:54;19.77;;;14.45;;
51852;SDS011;37894;53.172;6.598;2023-06-22T06:28:20;16.55;;;13.40;;
51852;SDS011;37894;53.172;6.598;2023-06-22T06:30:46;17.05;;;13.50;;
51852;SDS011;37894;53.172;6.598;2023-06-22T06:33:12;17.55;;;13.07;;
51852;SDS011;37894;53.172;6.598;2023-06-22T06:35:38;16.08;;;13.27;;
51852;SDS011;37894;53.172;6.598;2023-06-22T06:38:04;17.38;;;14.38;;
51852;SDS011;37894;53.172;6.598;2023-06-22T06:40:30;20.60;;;14.65;;
51852;SDS011;37894;53.172;6.598;2023-06-22T06:42:56;19.30;;;13.70;;
51852;SDS011;37894;53.172;6.598;2023-06-22T06:45:22;17.08;;;12.43;;
51852;SDS011;37894;53.172;6.598;2023-06-22T06:47:48;14.75;;;11.70;;
51852;SDS011;37894;53.172;6.598;2023-06-22T06:50:15;18.35;;;11.65;;
51852;SDS011;37894;53.172;6.598;2023-06-22T06:52:41;16.08;;;10.82;;
51852;SDS011;37894;53.172;6.598;2023-06-22T06:55:07;16.52;;;11.23;;
51852;SDS011;37894;53.172;6.598;2023-06-22T06:57:36;14.75;;;10.38;;
51852;SDS011;37894;53.172;6.598;2023-06-22T07:00:07;13.00;;;9.65;;
51852;SDS011;37894;53.172;6.598;2023-06-22T07:02:42;13.93;;;9.88;;
51852;SDS011;37894;53.172;6.598;2023-06-22T07:05:09;11.43;;;8.98;;
51852;SDS011;37894;53.172;6.598;2023-06-22T07:07:36;10.82;;;9.20;;
51852;SDS011;37894;53.172;6.598;2023-06-22T07:10:02;12.82;;;10.18;;
51852;SDS011;37894;53.172;6.598;2023-06-22T07:12:29;11.55;;;9.65;;
51852;SDS011;37894;53.172;6.598;2023-06-22T07:15:00;12.73;;;9.68;;
51852;SDS011;37894;53.172;6.598;2023-06-22T07:17:30;15.75;;;10.07;;
51852;SDS011;37894;53.172;6.598;2023-06-22T07:19:56;11.07;;;8.82;;
51852;SDS011;37894;53.172;6.598;2023-06-22T07:22:21;12.35;;;7.93;;
51852;SDS011;37894;53.172;6.598;2023-06-22T07:24:47;13.32;;;9.07;;
51852;SDS011;37894;53.172;6.598;2023-06-22T07:27:14;10.60;;;8.02;;
51852;SDS011;37894;53.172;6.598;2023-06-22T07:29:43;13.27;;;8.60;;
51852;SDS011;37894;53.172;6.598;2023-06-22T07:32:08;9.75;;;7.93;;
51852;SDS011;37894;53.172;6.598;2023-06-22T07:34:34;10.00;;;7.50;;
51852;SDS011;37894;53.172;6.598;2023-06-22T07:37:00;13.00;;;7.57;;
51852;SDS011;37894;53.172;6.598;2023-06-22T07:39:26;10.27;;;7.80;;
51852;SDS011;37894;53.172;6.598;2023-06-22T07:41:52;12.40;;;7.97;;
51852;SDS011;37894;53.172;6.598;2023-06-22T07:44:18;11.15;;;7.30;;
51852;SDS011;37894;53.172;6.598;2023-06-22T07:46:43;9.88;;;7.13;;
51852;SDS011;37894;53.172;6.598;2023-06-22T07:49:09;11.55;;;7.55;;
51852;SDS011;37894;53.172;6.598;2023-06-22T07:51:35;11.45;;;7.65;;
51852;SDS011;37894;53.172;6.598;2023-06-22T07:54:01;10.38;;;7.68;;
51852;SDS011;37894;53.172;6.598;2023-06-22T07:56:26;11.30;;;6.95;;
51852;SDS011;37894;53.172;6.598;2023-06-22T07:58:52;10.48;;;6.85;;
51852;SDS011;37894;53.172;6.598;2023-06-22T08:01:18;10.13;;;6.50;;
51852;SDS011;37894;53.172;6.598;2023-06-22T08:03:47;10.48;;;6.88;;
51852;SDS011;37894;53.172;6.598;2023-06-22T08:06:13;12.65;;;7.30;;
51852;SDS011;37894;53.172;6.598;2023-06-22T08:08:39;7.93;;;5.57;;
51852;SDS011;37894;53.172;6.598;2023-06-22T08:11:05;9.05;;;5.43;;
51852;SDS011;37894;53.172;6.598;2023-06-22T08:13:31;9.15;;;6.15;;
51852;SDS011;37894;53.172;6.598;2023-06-22T08:15:57;7.78;;;5.85;;
51852;SDS011;37894;53.172;6.598;2023-06-22T08:18:22;8.65;;;5.88;;
51852;SDS011;37894;53.172;6.598;2023-06-22T08:20:48;9.95;;;5.90;;
51852;SDS011;37894;53.172;6.598;2023-06-22T08:23:14;9.15;;;5.65;;
51852;SDS011;37894;53.172;6.598;2023-06-22T08:25:40;8.15;;;6.00;;
51852;SDS011;37894;53.172;6.598;2023-06-22T08:28:06;8.48;;;5.18;;
51852;SDS011;37894;53.172;6.598;2023-06-22T08:30:32;8.25;;;6.13;;
51852;SDS011;37894;53.172;6.598;2023-06-22T08:32:58;9.32;;;6.60;;
51852;SDS011;37894;53.172;6.598;2023-06-22T08:35:23;9.30;;;5.72;;
51852;SDS011;37894;53.172;6.598;2023-06-22T08:37:49;10.13;;;5.60;;
51852;SDS011;37894;53.172;6.598;2023-06-22T08:40:19;8.05;;;5.40;;
51852;SDS011;37894;53.172;6.598;2023-06-22T08:42:46;7.60;;;5.88;;
51852;SDS011;37894;53.172;6.598;2023-06-22T08:45:13;8.52;;;5.03;;
51852;SDS011;37894;53.172;6.598;2023-06-22T08:47:39;8.23;;;5.10;;
51852;SDS011;37894;53.172;6.598;2023-06-22T08:50:09;8.35;;;6.28;;
51852;SDS011;37894;53.172;6.598;2023-06-22T08:52:35;10.48;;;5.80;;
51852;SDS011;37894;53.172;6.598;2023-06-22T08:55:02;8.82;;;6.20;;
51852;SDS011;37894;53.172;6.598;2023-06-22T08:57:28;11.60;;;6.47;;
51852;SDS011;37894;53.172;6.598;2023-06-22T08:59:55;8.15;;;5.45;;
51852;SDS011;37894;53.172;6.598;2023-06-22T09:02:23;6.78;;;5.50;;
51852;SDS011;37894;53.172;6.598;2023-06-22T09:04:49;9.07;;;6.32;;
51852;SDS011;37894;53.172;6.598;2023-06-22T09:07:20;8.80;;;5.83;;
51852;SDS011;37894;53.172;6.598;2023-06-22T09:09:51;9.27;;;6.30;;
51852;SDS011;37894;53.172;6.598;2023-06-22T09:12:17;8.43;;;5.72;;
51852;SDS011;37894;53.172;6.598;2023-06-22T09:14:50;9.15;;;5.82;;
51852;SDS011;37894;53.172;6.598;2023-06-22T09:17:16;9.18;;;5.93;;
51852;SDS011;37894;53.172;6.598;2023-06-22T09:19:42;8.35;;;4.95;;
51852;SDS011;37894;53.172;6.598;2023-06-22T09:22:08;7.28;;;5.55;;
51852;SDS011;37894;53.172;6.598;2023-06-22T09:24:33;9.50;;;5.90;;
51852;SDS011;37894;53.172;6.598;2023-06-22T09:26:59;9.82;;;6.32;;
51852;SDS011;37894;53.172;6.598;2023-06-22T09:29:25;8.52;;;5.75;;
51852;SDS011;37894;53.172;6.598;2023-06-22T09:31:50;9.77;;;6.20;;
51852;SDS011;37894;53.172;6.598;2023-06-22T09:34:18;10.65;;;5.47;;
51852;SDS011;37894;53.172;6.598;2023-06-22T09:36:45;11.70;;;5.70;;
51852;SDS011;37894;53.172;6.598;2023-06-22T09:39:11;8.25;;;5.57;;
51852;SDS011;37894;53.172;6.598;2023-06-22T09:41:37;7.90;;;5.97;;
51852;SDS011;37894;53.172;6.598;2023-06-22T09:44:03;7.47;;;5.40;;
51852;SDS011;37894;53.172;6.598;2023-06-22T09:46:28;7.40;;;4.85;;
51852;SDS011;37894;53.172;6.598;2023-06-22T09:48:54;7.30;;;4.70;;
51852;SDS011;37894;53.172;6.598;2023-06-22T09:51:20;8.90;;;5.57;;
51852;SDS011;37894;53.172;6.598;2023-06-22T09:53:47;8.02;;;5.68;;
51852;SDS011;37894;53.172;6.598;2023-06-22T09:56:13;7.00;;;4.97;;
51852;SDS011;37894;53.172;6.598;2023-06-22T09:58:43;8.40;;;4.93;;
51852;SDS011;37894;53.172;6.598;2023-06-22T10:01:10;6.53;;;4.43;;
51852;SDS011;37894;53.172;6.598;2023-06-22T10:03:36;9.05;;;4.57;;
51852;SDS011;37894;53.172;6.598;2023-06-22T10:06:02;7.25;;;4.90;;
51852;SDS011;37894;53.172;6.598;2023-06-22T10:08:28;6.13;;;4.47;;
51852;SDS011;37894;53.172;6.598;2023-06-22T10:10:53;9.25;;;6.57;;
51852;SDS011;37894;53.172;6.598;2023-06-22T10:13:19;6.60;;;4.90;;
51852;SDS011;37894;53.172;6.598;2023-06-22T10:15:45;6.57;;;4.78;;
51852;SDS011;37894;53.172;6.598;2023-06-22T10:18:18;14.35;;;7.00;;
51852;SDS011;37894;53.172;6.598;2023-06-22T10:20:44;7.97;;;5.85;;
51852;SDS011;37894;53.172;6.598;2023-06-22T10:23:12;11.45;;;6.05;;
51852;SDS011;37894;53.172;6.598;2023-06-22T10:25:38;9.93;;;6.60;;
51852;SDS011;37894;53.172;6.598;2023-06-22T10:28:03;8.35;;;6.22;;
51852;SDS011;37894;53.172;6.598;2023-06-22T10:30:29;8.57;;;5.50;;
51852;SDS011;37894;53.172;6.598;2023-06-22T10:32:55;8.63;;;6.32;;
51852;SDS011;37894;53.172;6.598;2023-06-22T10:35:21;10.00;;;5.80;;
51852;SDS011;37894;53.172;6.598;2023-06-22T10:37:46;8.40;;;5.82;;
51852;SDS011;37894;53.172;6.598;2023-06-22T10:40:13;6.60;;;4.93;;
51852;SDS011;37894;53.172;6.598;2023-06-22T10:42:40;7.97;;;5.05;;
51852;SDS011;37894;53.172;6.598;2023-06-22T10:45:06;10.63;;;6.10;;
51852;SDS011;37894;53.172;6.598;2023-06-22T10:47:33;8.73;;;5.15;;
51852;SDS011;37894;53.172;6.598;2023-06-22T10:49:59;9.50;;;5.05;;
51852;SDS011;37894;53.172;6.598;2023-06-22T10:52:25;9.25;;;5.93;;
51852;SDS011;37894;53.172;6.598;2023-06-22T10:54:50;9.98;;;6.22;;
51852;SDS011;37894;53.172;6.598;2023-06-22T10:57:17;13.43;;;6.97;;
51852;SDS011;37894;53.172;6.598;2023-06-22T10:59:43;8.85;;;6.03;;
51852;SDS011;37894;53.172;6.598;2023-06-22T11:02:09;8.13;;;5.78;;
51852;SDS011;37894;53.172;6.598;2023-06-22T11:04:35;7.60;;;5.85;;
51852;SDS011;37894;53.172;6.598;2023-06-22T11:07:00;9.27;;;5.80;;
51852;SDS011;37894;53.172;6.598;2023-06-22T11:09:27;7.22;;;4.82;;
51852;SDS011;37894;53.172;6.598;2023-06-22T11:11:52;7.07;;;5.30;;
51852;SDS011;37894;53.172;6.598;2023-06-22T11:14:18;8.02;;;5.60;;
51852;SDS011;37894;53.172;6.598;2023-06-22T11:16:44;8.95;;;5.82;;
51852;SDS011;37894;53.172;6.598;2023-06-22T11:19:11;8.98;;;5.20;;
51852;SDS011;37894;53.172;6.598;2023-06-22T11:21:37;7.70;;;4.90;;
51852;SDS011;37894;53.172;6.598;2023-06-22T11:24:06;7.15;;;5.25;;
51852;SDS011;37894;53.172;6.598;2023-06-22T11:26:35;7.20;;;4.20;;
51852;SDS011;37894;53.172;6.598;2023-06-22T11:29:02;6.45;;;4.07;;
51852;SDS011;37894;53.172;6.598;2023-06-22T11:31:30;6.72;;;4.82;;
51852;SDS011;37894;53.172;6.598;2023-06-22T11:33:57;7.47;;;4.90;;
51852;SDS011;37894;53.172;6.598;2023-06-22T11:36:23;7.93;;;5.82;;
51852;SDS011;37894;53.172;6.598;2023-06-22T11:38:48;7.63;;;4.93;;
51852;SDS011;37894;53.172;6.598;2023-06-22T11:41:17;9.15;;;4.80;;
51852;SDS011;37894;53.172;6.598;2023-06-22T11:43:46;9.88;;;4.25;;
51852;SDS011;37894;53.172;6.598;2023-06-22T11:46:12;8.27;;;5.30;;
51852;SDS011;37894;53.172;6.598;2023-06-22T11:48:38;6.53;;;4.30;;
51852;SDS011;37894;53.172;6.598;2023-06-22T11:51:04;6.75;;;5.00;;
51852;SDS011;37894;53.172;6.598;2023-06-22T11:53:31;6.53;;;4.03;;
51852;SDS011;37894;53.172;6.598;2023-06-22T11:55:57;7.18;;;4.78;;
51852;SDS011;37894;53.172;6.598;2023-06-22T11:58:23;8.07;;;5.18;;
51852;SDS011;37894;53.172;6.598;2023-06-22T12:00:48;6.47;;;4.25;;
51852;SDS011;37894;53.172;6.598;2023-06-22T12:03:15;10.80;;;5.75;;
51852;SDS011;37894;53.172;6.598;2023-06-22T12:05:41;8.05;;;4.63;;
51852;SDS011;37894;53.172;6.598;2023-06-22T12:08:07;7.15;;;4.85;;
51852;SDS011;37894;53.172;6.598;2023-06-22T12:10:33;7.32;;;4.95;;
51852;SDS011;37894;53.172;6.598;2023-06-22T12:12:59;7.40;;;5.30;;
51852;SDS011;37894;53.172;6.598;2023-06-22T12:15:25;8.68;;;5.20;;
51852;SDS011;37894;53.172;6.598;2023-06-22T12:17:51;9.10;;;5.03;;
51852;SDS011;37894;53.172;6.598;2023-06-22T12:20:17;10.68;;;5.47;;
51852;SDS011;37894;53.172;6.598;2023-06-22T12:22:43;7.93;;;5.43;;
51852;SDS011;37894;53.172;6.598;2023-06-22T12:25:09;7.93;;;5.43;;
51852;SDS011;37894;53.172;6.598;2023-06-22T12:27:35;8.30;;;5.90;;
51852;SDS011;37894;53.172;6.598;2023-06-22T12:30:02;9.32;;;4.82;;
51852;SDS011;37894;53.172;6.598;2023-06-22T12:32:29;7.40;;;4.75;;
51852;SDS011;37894;53.172;6.598;2023-06-22T12:34:55;6.78;;;5.13;;
51852;SDS011;37894;53.172;6.598;2023-06-22T12:37:21;7.43;;;5.00;;
51852;SDS011;37894;53.172;6.598;2023-06-22T12:39:47;8.48;;;4.97;;
51852;SDS011;37894;53.172;6.598;2023-06-22T12:42:13;7.93;;;5.00;;
51852;SDS011;37894;53.172;6.598;2023-06-22T12:44:40;7.45;;;4.53;;
51852;SDS011;37894;53.172;6.598;2023-06-22T12:47:06;7.72;;;5.68;;
51852;SDS011;37894;53.172;6.598;2023-06-22T12:49:33;9.07;;;6.03;;
51852;SDS011;37894;53.172;6.598;2023-06-22T12:52:00;7.22;;;5.82;;
51852;SDS011;37894;53.172;6.598;2023-06-22T12:54:26;10.50;;;6.38;;
51852;SDS011;37894;53.172;6.598;2023-06-22T12:56:51;7.10;;;5.45;;
51852;SDS011;37894;53.172;6.598;2023-06-22T12:59:17;7.90;;;6.00;;
51852;SDS011;37894;53.172;6.598;2023-06-22T13:01:43;7.78;;;5.97;;
51852;SDS011;37894;53.172;6.598;2023-06-22T13:04:10;12.50;;;7.00;;
51852;SDS011;37894;53.172;6.598;2023-06-22T13:06:39;6.93;;;5.50;;
51852;SDS011;37894;53.172;6.598;2023-06-22T13:09:09;7.70;;;5.20;;
51852;SDS011;37894;53.172;6.598;2023-06-22T13:11:35;8.32;;;6.57;;
51852;SDS011;37894;53.172;6.598;2023-06-22T13:14:01;10.80;;;6.05;;
51852;SDS011;37894;53.172;6.598;2023-06-22T13:16:26;9.15;;;5.10;;
51852;SDS011;37894;53.172;6.598;2023-06-22T13:18:52;7.55;;;5.85;;
51852;SDS011;37894;53.172;6.598;2023-06-22T13:21:18;9.05;;;5.63;;
51852;SDS011;37894;53.172;6.598;2023-06-22T13:23:43;7.63;;;4.13;;
51852;SDS011;37894;53.172;6.598;2023-06-22T13:26:09;8.57;;;5.57;;
51852;SDS011;37894;53.172;6.598;2023-06-22T13:28:35;7.57;;;4.75;;
51852;SDS011;37894;53.172;6.598;2023-06-22T13:31:00;6.20;;;4.22;;
51852;SDS011;37894;53.172;6.598;2023-06-22T13:33:26;8.57;;;4.07;;
51852;SDS011;37894;53.172;6.598;2023-06-22T13:35:52;6.93;;;4.50;;
51852;SDS011;37894;53.172;6.598;2023-06-22T13:38:17;8.63;;;5.25;;
51852;SDS011;37894;53.172;6.598;2023-06-22T13:40:43;5.95;;;3.70;;
51852;SDS011;37894;53.172;6.598;2023-06-22T13:43:09;9.63;;;5.20;;
51852;SDS011;37894;53.172;6.598;2023-06-22T13:45:35;7.25;;;4.55;;
51852;SDS011;37894;53.172;6.598;2023-06-22T13:48:00;5.82;;;3.95;;
51852;SDS011;37894;53.172;6.598;2023-06-22T13:50:26;7.30;;;4.47;;
51852;SDS011;37894;53.172;6.598;2023-06-22T13:52:54;8.23;;;4.13;;
51852;SDS011;37894;53.172;6.598;2023-06-22T13:55:20;7.18;;;4.28;;
51852;SDS011;37894;53.172;6.598;2023-06-22T13:57:46;7.43;;;4.32;;
51852;SDS011;37894;53.172;6.598;2023-06-22T14:00:12;5.65;;;3.72;;
51852;SDS011;37894;53.172;6.598;2023-06-22T14:02:38;7.32;;;3.70;;
51852;SDS011;37894;53.172;6.598;2023-06-22T14:05:04;5.38;;;3.35;;
51852;SDS011;37894;53.172;6.598;2023-06-22T14:07:31;7.78;;;3.60;;
51852;SDS011;37894;53.172;6.598;2023-06-22T14:09:56;5.47;;;3.10;;
51852;SDS011;37894;53.172;6.598;2023-06-22T14:12:23;4.45;;;2.85;;
51852;SDS011;37894;53.172;6.598;2023-06-22T14:14:48;4.35;;;3.10;;
51852;SDS011;37894;53.172;6.598;2023-06-22T14:17:14;7.57;;;3.20;;
51852;SDS011;37894;53.172;6.598;2023-06-22T14:19:40;5.63;;;3.17;;
51852;SDS011;37894;53.172;6.598;2023-06-22T14:22:06;5.50;;;3.20;;
51852;SDS011;37894;53.172;6.598;2023-06-22T14:24:31;6.38;;;2.80;;
51852;SDS011;37894;53.172;6.598;2023-06-22T14:26:57;5.15;;;2.58;;
51852;SDS011;37894;53.172;6.598;2023-06-22T14:29:23;5.60;;;2.72;;
51852;SDS011;37894;53.172;6.598;2023-06-22T14:31:48;5.15;;;3.08;;
51852;SDS011;37894;53.172;6.598;2023-06-22T14:34:15;4.72;;;2.75;;
51852;SDS011;37894;53.172;6.598;2023-06-22T14:36:41;7.45;;;3.10;;
51852;SDS011;37894;53.172;6.598;2023-06-22T14:39:07;4.18;;;2.50;;
51852;SDS011;37894;53.172;6.598;2023-06-22T14:41:33;5.70;;;2.83;;